createdAt,value
2023-04-16T00:01:27.439Z,5.15
2023-04-16T00:04:00.866Z,5.14
2023-04-16T00:06:34.516Z,5.11
2023-04-16T00:09:08.172Z,5.06
2023-04-16T00:11:41.932Z,5.06
2023-04-16T00:14:15.214Z,5.05
2023-04-16T00:16:48.462Z,5.04
2023-04-16T00:19:21.734Z,5.02
2023-04-16T00:21:55.345Z,5.04
2023-04-16T00:24:28.321Z,5.04
2023-04-16T00:27:01.889Z,5.06
2023-04-16T00:29:34.957Z,5.07
2023-04-16T00:32:08.270Z,5.10
2023-04-16T00:34:41.539Z,5.11
2023-04-16T00:37:14.665Z,5.13
2023-04-16T00:39:47.821Z,5.11
2023-04-16T00:42:21.588Z,5.10
2023-04-16T00:44:54.616Z,5.09
2023-04-16T00:47:28.397Z,5.05
2023-04-16T00:50:01.720Z,5.02
2023-04-16T00:52:35.521Z,5.00
2023-04-16T00:55:11.497Z,4.98
2023-04-16T00:57:45.086Z,4.97
2023-04-16T01:00:18.839Z,4.97
2023-04-16T01:02:52.239Z,4.94
2023-04-16T01:05:25.326Z,4.93
2023-04-16T01:08:04.582Z,4.91
2023-04-16T01:10:39.227Z,4.88
2023-04-16T01:13:12.696Z,4.88
2023-04-16T01:15:45.661Z,4.85
2023-04-16T01:18:21.372Z,4.82
2023-04-16T01:20:54.276Z,4.80
2023-04-16T01:23:27.770Z,4.78
2023-04-16T01:26:00.688Z,4.77
2023-04-16T01:28:34.040Z,4.77
2023-04-16T01:31:07.320Z,4.81
2023-04-16T01:33:45.703Z,4.82
2023-04-16T01:36:18.966Z,4.83
2023-04-16T01:38:52.880Z,4.85
2023-04-16T01:41:26.172Z,4.89
2023-04-16T01:43:59.342Z,4.90
2023-04-16T01:46:34.676Z,4.89
2023-04-16T01:49:08.002Z,4.92
2023-04-16T01:51:42.334Z,4.91
2023-04-16T01:54:15.706Z,4.93
2023-04-16T01:56:48.859Z,4.92
2023-04-16T01:59:22.417Z,4.91
2023-04-16T02:01:55.851Z,4.90
2023-04-16T02:04:29.081Z,4.91
2023-04-16T02:07:02.234Z,4.92
2023-04-16T02:09:38.125Z,4.91
2023-04-16T02:12:12.262Z,4.90
2023-04-16T02:14:46.725Z,4.92
2023-04-16T02:17:20.732Z,4.93
2023-04-16T02:19:55.892Z,4.96
2023-04-16T02:22:28.889Z,4.96
2023-04-16T02:25:02.380Z,4.96
2023-04-16T02:27:36.984Z,4.94
2023-04-16T02:30:13.194Z,4.92
2023-04-16T02:32:46.151Z,4.88
2023-04-16T02:35:19.216Z,4.87
2023-04-16T02:37:52.510Z,4.84
2023-04-16T02:40:25.367Z,4.82
2023-04-16T02:42:59.210Z,4.82
2023-04-16T02:45:32.682Z,4.79
2023-04-16T02:48:07.623Z,4.77
2023-04-16T02:50:40.728Z,4.74
2023-04-16T02:53:14.058Z,4.71
2023-04-16T02:55:55.536Z,4.68
2023-04-16T02:58:29.210Z,4.65
2023-04-16T03:01:02.459Z,4.60
2023-04-16T03:03:36.072Z,4.56
2023-04-16T03:06:08.939Z,4.52
2023-04-16T03:08:42.246Z,4.52
2023-04-16T03:11:15.278Z,4.51
2023-04-16T03:13:48.534Z,4.51
2023-04-16T03:16:21.814Z,4.51
2023-04-16T03:18:54.913Z,4.52
2023-04-16T03:21:28.234Z,4.55
2023-04-16T03:24:01.493Z,4.56
2023-04-16T03:26:34.658Z,4.55
2023-04-16T03:29:08.298Z,4.54
2023-04-16T03:31:41.898Z,4.52
2023-04-16T03:34:15.236Z,4.52
2023-04-16T03:36:48.199Z,4.52
2023-04-16T03:39:21.323Z,4.54
2023-04-16T03:41:54.395Z,4.55
2023-04-16T03:44:27.450Z,4.58
2023-04-16T03:47:00.588Z,4.61
2023-04-16T03:49:34.132Z,4.64
2023-04-16T03:52:07.363Z,4.63
2023-04-16T03:54:40.719Z,4.65
2023-04-16T03:57:15.398Z,4.69
2023-04-16T03:59:48.810Z,4.74
2023-04-16T04:02:22.694Z,4.80
2023-04-16T04:04:57.809Z,4.89
2023-04-16T04:07:31.437Z,4.96
2023-04-16T04:10:04.360Z,5.04
2023-04-16T04:12:39.027Z,5.12
2023-04-16T04:15:13.502Z,5.18
2023-04-16T04:17:48.441Z,5.23
2023-04-16T04:20:22.070Z,5.30
2023-04-16T04:22:56.241Z,5.36
2023-04-16T04:25:30.864Z,5.42
2023-04-16T04:28:04.023Z,5.50
2023-04-16T04:30:37.844Z,5.58
2023-04-16T04:33:11.493Z,5.65
2023-04-16T04:35:44.836Z,5.71
2023-04-16T04:38:20.076Z,5.75
2023-04-16T04:40:56.679Z,5.80
2023-04-16T04:43:31.468Z,5.86
2023-04-16T04:46:05.452Z,5.94
2023-04-16T04:48:38.530Z,6.01
2023-04-16T04:51:12.463Z,6.08
2023-04-16T04:53:46.513Z,6.13
2023-04-16T04:56:20.091Z,6.16
2023-04-16T04:58:54.036Z,6.21
2023-04-16T05:01:27.181Z,6.23
2023-04-16T05:04:00.034Z,6.23
2023-04-16T05:06:33.358Z,6.26
2023-04-16T05:09:06.885Z,6.30
2023-04-16T05:11:42.918Z,6.33
2023-04-16T05:14:16.195Z,6.39
2023-04-16T05:16:49.037Z,6.43
2023-04-16T05:19:22.128Z,6.48
2023-04-16T05:21:55.843Z,6.53
2023-04-16T05:24:29.260Z,6.60
2023-04-16T05:27:02.227Z,6.69
2023-04-16T05:29:35.676Z,6.75
2023-04-16T05:32:08.547Z,6.78
2023-04-16T05:34:41.508Z,6.79
2023-04-16T05:37:14.617Z,6.83
2023-04-16T05:39:48.585Z,6.86
2023-04-16T05:42:21.661Z,6.90
2023-04-16T05:44:55.198Z,6.94
2023-04-16T05:47:28.657Z,6.98
2023-04-16T05:50:01.571Z,7.00
2023-04-16T05:52:34.727Z,7.00
2023-04-16T05:55:08.320Z,7.03
2023-04-16T05:57:41.239Z,7.02
2023-04-16T06:00:15.260Z,7.00
2023-04-16T06:02:48.581Z,6.94
2023-04-16T06:05:21.938Z,6.88
2023-04-16T06:07:56.266Z,6.86
2023-04-16T06:10:28.700Z,6.85
2023-04-16T06:13:01.373Z,6.87
2023-04-16T06:15:35.698Z,6.91
2023-04-16T06:18:08.810Z,6.99
2023-04-16T06:20:42.395Z,7.09
2023-04-16T06:23:16.263Z,7.19
2023-04-16T06:25:49.112Z,7.26
2023-04-16T06:28:22.687Z,7.36
2023-04-16T06:30:55.706Z,7.43
2023-04-16T06:33:28.824Z,7.50
2023-04-16T06:36:01.653Z,7.54
2023-04-16T06:38:35.293Z,7.61
2023-04-16T06:41:09.027Z,7.71
2023-04-16T06:43:42.275Z,7.83
2023-04-16T06:46:15.059Z,7.91
2023-04-16T06:48:47.923Z,7.99
2023-04-16T06:51:20.993Z,8.07
2023-04-16T06:53:54.057Z,8.11
2023-04-16T06:56:26.951Z,8.14
2023-04-16T06:59:01.151Z,8.19
2023-04-16T07:01:34.419Z,8.25
2023-04-16T07:04:07.611Z,8.33
2023-04-16T07:06:41.541Z,8.39
2023-04-16T07:09:14.939Z,8.41
2023-04-16T07:11:48.562Z,8.43
2023-04-16T07:14:21.307Z,8.45
2023-04-16T07:16:54.662Z,8.45
2023-04-16T07:19:29.392Z,8.46
2023-04-16T07:22:02.680Z,8.48
2023-04-16T07:24:36.249Z,8.51
2023-04-16T07:27:09.098Z,8.54
2023-04-16T07:29:42.305Z,8.58
2023-04-16T07:32:15.970Z,8.61
2023-04-16T07:34:49.147Z,8.67
2023-04-16T07:37:22.083Z,8.73
2023-04-16T07:39:57.372Z,8.78
2023-04-16T07:42:30.483Z,8.83
2023-04-16T07:45:04.051Z,8.88
2023-04-16T07:47:37.203Z,8.95
2023-04-16T07:50:10.966Z,8.98
2023-04-16T07:52:45.737Z,9.03
2023-04-16T07:55:18.530Z,9.04
2023-04-16T07:57:51.529Z,9.08
2023-04-16T08:00:24.412Z,9.14
2023-04-16T08:02:57.555Z,9.20
2023-04-16T08:05:30.781Z,9.28
2023-04-16T08:08:03.913Z,9.37
2023-04-16T08:10:37.450Z,9.43
2023-04-16T08:13:10.984Z,9.45
2023-04-16T08:15:44.435Z,9.46
2023-04-16T08:18:17.700Z,9.47
2023-04-16T08:20:50.666Z,9.51
2023-04-16T08:23:23.899Z,9.49
2023-04-16T08:25:57.171Z,9.52
2023-04-16T08:28:30.115Z,9.55
2023-04-16T08:31:03.117Z,9.57
2023-04-16T08:33:36.471Z,9.64
2023-04-16T08:36:09.459Z,9.67
2023-04-16T08:38:42.205Z,9.74
2023-04-16T08:41:16.041Z,9.80
2023-04-16T08:43:50.692Z,9.85
2023-04-16T08:46:27.094Z,9.93
2023-04-16T08:49:01.820Z,9.95
2023-04-16T08:51:36.774Z,10.00
2023-04-16T08:54:15.081Z,10.03
2023-04-16T08:56:47.914Z,10.05
2023-04-16T08:59:21.355Z,10.11
2023-04-16T09:01:58.080Z,10.17
2023-04-16T09:04:31.452Z,10.22
2023-04-16T09:07:06.224Z,10.27
2023-04-16T09:09:40.705Z,10.33
2023-04-16T09:12:12.683Z,10.40
2023-04-16T09:14:47.154Z,10.44
2023-04-16T09:17:21.348Z,10.49
2023-04-16T09:19:55.254Z,10.56
2023-04-16T09:22:28.292Z,10.63
2023-04-16T09:25:01.483Z,10.66
2023-04-16T09:27:34.885Z,10.68
2023-04-16T09:30:24.760Z,10.67
2023-04-16T09:33:23.498Z,10.66
2023-04-16T09:35:56.451Z,10.70
2023-04-16T09:38:31.149Z,10.73
2023-04-16T09:41:10.889Z,10.75
2023-04-16T09:43:46.042Z,10.79
2023-04-16T09:46:18.982Z,10.84
2023-04-16T09:48:52.298Z,10.90
2023-04-16T09:51:27.072Z,10.93
2023-04-16T09:53:59.963Z,10.92
2023-04-16T09:56:33.611Z,10.91
2023-04-16T09:59:06.579Z,10.90
2023-04-16T10:01:40.031Z,10.88
2023-04-16T10:04:12.870Z,10.87
2023-04-16T10:06:47.395Z,10.86
2023-04-16T10:09:20.778Z,10.89
2023-04-16T10:11:53.763Z,10.96
2023-04-16T10:14:26.807Z,11.03
2023-04-16T10:17:01.224Z,11.07
2023-04-16T10:19:35.638Z,11.12
2023-04-16T10:22:08.849Z,11.15
2023-04-16T10:24:43.306Z,11.19
2023-04-16T10:27:17.510Z,11.28
2023-04-16T10:29:51.394Z,11.31
2023-04-16T10:32:26.828Z,11.37
2023-04-16T10:34:59.907Z,11.41
2023-04-16T10:37:33.865Z,11.46
2023-04-16T10:40:25.775Z,11.43
2023-04-16T10:43:01.837Z,11.40
2023-04-16T10:45:40.238Z,11.40
2023-04-16T10:48:15.123Z,11.40
2023-04-16T10:50:59.067Z,11.44
2023-04-16T10:53:32.043Z,11.47
2023-04-16T10:56:13.236Z,11.52
2023-04-16T10:58:46.190Z,11.53
2023-04-16T11:01:20.119Z,11.52
2023-04-16T11:03:53.507Z,11.55
2023-04-16T11:06:28.534Z,11.60
2023-04-16T11:09:01.476Z,11.66
2023-04-16T11:11:39.844Z,11.76
2023-04-16T11:14:13.449Z,11.79
2023-04-16T11:16:46.860Z,11.76
2023-04-16T11:19:20.023Z,11.79
2023-04-16T11:21:53.567Z,11.84
2023-04-16T11:24:29.933Z,11.89
2023-04-16T11:27:03.403Z,11.93
2023-04-16T11:29:36.985Z,11.95
2023-04-16T11:32:10.203Z,11.98
2023-04-16T11:34:47.833Z,11.99
2023-04-16T11:37:38.460Z,12.03
2023-04-16T11:40:12.239Z,12.09
2023-04-16T11:42:46.456Z,12.17
2023-04-16T11:45:19.792Z,12.27
2023-04-16T11:47:56.741Z,12.34
2023-04-16T11:50:30.620Z,12.38
2023-04-16T11:53:07.802Z,12.40
2023-04-16T11:55:46.962Z,12.44
2023-04-16T11:58:22.922Z,12.41
2023-04-16T12:00:56.523Z,12.41
2023-04-16T12:03:45.039Z,12.39
2023-04-16T12:06:18.105Z,12.37
2023-04-16T12:08:52.266Z,12.34
2023-04-16T12:11:42.372Z,12.31
2023-04-16T12:14:16.194Z,12.33
2023-04-16T12:16:49.470Z,12.34
2023-04-16T12:19:22.724Z,12.36
2023-04-16T12:21:55.604Z,12.40
2023-04-16T12:24:28.543Z,12.40
2023-04-16T12:27:03.446Z,12.40
2023-04-16T12:29:38.759Z,12.45
2023-04-16T12:32:25.162Z,12.48
2023-04-16T12:34:58.138Z,12.51
2023-04-16T12:37:31.102Z,12.59
2023-04-16T12:40:05.518Z,12.65
2023-04-16T12:42:38.997Z,12.70
2023-04-16T12:45:12.019Z,12.75
2023-04-16T12:47:45.087Z,12.78
2023-04-16T12:50:18.183Z,12.79
2023-04-16T12:52:51.429Z,12.83
2023-04-16T12:55:24.594Z,12.85
2023-04-16T12:57:57.520Z,12.82
2023-04-16T13:00:30.516Z,12.80
2023-04-16T13:03:03.539Z,12.75
2023-04-16T13:05:36.748Z,12.74
2023-04-16T13:08:10.102Z,12.76
2023-04-16T13:10:43.823Z,12.78
2023-04-16T13:13:18.404Z,12.78
2023-04-16T13:15:51.730Z,12.76
2023-04-16T13:18:27.595Z,12.76
2023-04-16T13:21:01.501Z,12.78
2023-04-16T13:23:35.854Z,12.80
2023-04-16T13:26:08.881Z,12.83
2023-04-16T13:28:42.085Z,12.84
2023-04-16T13:31:16.193Z,12.84
2023-04-16T13:33:49.674Z,12.80
2023-04-16T13:36:22.651Z,12.80
2023-04-16T13:38:56.026Z,12.77
2023-04-16T13:41:29.232Z,12.76
2023-04-16T13:44:02.151Z,12.73
2023-04-16T13:46:35.485Z,12.74
2023-04-16T13:49:08.857Z,12.74
2023-04-16T13:51:45.981Z,12.74
2023-04-16T13:54:18.888Z,12.75
2023-04-16T13:56:52.505Z,12.79
2023-04-16T13:59:25.450Z,12.82
2023-04-16T14:01:58.364Z,12.79
2023-04-16T14:04:31.759Z,12.72
2023-04-16T14:07:04.857Z,12.67
2023-04-16T14:09:37.954Z,12.66
2023-04-16T14:12:10.843Z,12.66
2023-04-16T14:14:44.180Z,12.70
2023-04-16T14:17:16.942Z,12.73
2023-04-16T14:19:50.176Z,12.74
2023-04-16T14:22:23.550Z,12.73
2023-04-16T14:24:56.586Z,12.74
2023-04-16T14:27:30.080Z,12.73
2023-04-16T14:30:03.381Z,12.71
2023-04-16T14:32:37.469Z,12.69
2023-04-16T14:35:10.875Z,12.66
2023-04-16T14:37:44.459Z,12.64
2023-04-16T14:40:18.271Z,12.60
2023-04-16T14:42:51.585Z,12.59
2023-04-16T14:45:26.730Z,12.55
2023-04-16T14:48:00.249Z,12.51
2023-04-16T14:50:33.334Z,12.46
2023-04-16T14:53:07.166Z,12.41
2023-04-16T14:55:40.304Z,12.36
2023-04-16T14:58:13.347Z,12.33
2023-04-16T15:00:46.453Z,12.28
2023-04-16T15:03:19.805Z,12.25
2023-04-16T15:05:55.650Z,12.16
2023-04-16T15:08:29.887Z,12.10
2023-04-16T15:11:02.977Z,12.05
2023-04-16T15:13:36.909Z,11.97
2023-04-16T15:16:09.965Z,11.89
2023-04-16T15:18:43.088Z,11.85
2023-04-16T15:21:16.189Z,11.82
2023-04-16T15:23:49.630Z,11.76
2023-04-16T15:26:23.303Z,11.71
2023-04-16T15:28:57.208Z,11.65
2023-04-16T15:31:30.578Z,11.59
2023-04-16T15:34:04.078Z,11.53
2023-04-16T15:36:37.161Z,11.47
2023-04-16T15:39:10.503Z,11.41
2023-04-16T15:41:57.527Z,11.35
2023-04-16T15:44:18.675Z,11.29
2023-04-16T15:46:51.827Z,11.23
2023-04-16T15:49:25.025Z,11.17
2023-04-16T15:51:58.141Z,11.11
2023-04-16T15:54:32.305Z,11.03
2023-04-16T15:57:05.509Z,10.95
2023-04-16T15:59:38.852Z,10.86
2023-04-16T16:02:11.691Z,10.78
2023-04-16T16:04:46.471Z,10.71
2023-04-16T16:07:20.854Z,10.63
2023-04-16T16:09:54.132Z,10.55
2023-04-16T16:12:27.572Z,10.46
2023-04-16T16:15:02.238Z,10.40
2023-04-16T16:17:36.380Z,10.32
2023-04-16T16:20:13.111Z,10.25
2023-04-16T16:22:47.622Z,10.19
2023-04-16T16:25:21.645Z,10.12
2023-04-16T16:27:54.674Z,10.05
2023-04-16T16:30:27.688Z,9.97
2023-04-16T16:33:01.216Z,9.89
2023-04-16T16:35:34.996Z,9.73
2023-04-16T16:38:07.933Z,9.73
2023-04-16T16:40:41.412Z,9.64
2023-04-16T16:43:14.765Z,9.56
2023-04-16T16:45:47.730Z,9.49
2023-04-16T16:48:21.459Z,9.43
2023-04-16T16:50:54.358Z,9.37
2023-04-16T16:53:27.835Z,9.31
2023-04-16T16:56:02.356Z,9.25
2023-04-16T16:58:35.929Z,9.19
2023-04-16T17:01:09.146Z,9.12
2023-04-16T17:03:42.539Z,9.07
2023-04-16T17:06:15.804Z,9.00
2023-04-16T17:08:49.642Z,8.95
2023-04-16T17:11:22.529Z,8.88
2023-04-16T17:13:55.964Z,8.83
2023-04-16T17:16:28.874Z,8.78
2023-04-16T17:19:01.886Z,8.74
2023-04-16T17:21:34.980Z,8.68
2023-04-16T17:24:08.177Z,8.63
2023-04-16T17:26:41.369Z,8.60
2023-04-16T17:29:14.327Z,8.56
2023-04-16T17:31:47.455Z,8.49
2023-04-16T17:34:22.202Z,8.46
2023-04-16T17:36:55.197Z,8.42
2023-04-16T17:39:28.781Z,8.40
2023-04-16T17:42:03.379Z,8.36
2023-04-16T17:44:36.428Z,8.31
2023-04-16T17:47:09.623Z,8.29
2023-04-16T17:49:42.505Z,8.26
2023-04-16T17:52:15.568Z,8.23
2023-04-16T17:54:49.481Z,8.19
2023-04-16T17:57:22.505Z,8.14
2023-04-16T17:59:56.127Z,8.09
2023-04-16T18:02:29.458Z,8.05
2023-04-16T18:05:02.496Z,8.01
2023-04-16T18:07:36.700Z,7.99
2023-04-16T18:10:11.319Z,7.94
2023-04-16T18:12:44.391Z,7.91
2023-04-16T18:15:18.114Z,7.88
2023-04-16T18:17:51.353Z,7.83
2023-04-16T18:20:24.420Z,7.80
2023-04-16T18:22:57.897Z,7.77
2023-04-16T18:25:34.932Z,7.74
2023-04-16T18:28:06.717Z,7.70
2023-04-16T18:30:40.600Z,7.65
2023-04-16T18:35:47.191Z,7.57
2023-04-16T18:38:19.924Z,7.53
2023-04-16T18:40:52.774Z,7.49
2023-04-16T18:43:25.762Z,7.46
2023-04-16T18:45:58.961Z,7.44
2023-04-16T18:48:31.567Z,7.41
2023-04-16T18:51:04.401Z,7.37
2023-04-16T18:53:39.447Z,7.34
2023-04-16T18:56:11.871Z,7.33
2023-04-16T18:58:44.630Z,7.30
2023-04-16T19:01:18.223Z,7.25
2023-04-16T19:03:51.076Z,7.20
2023-04-16T19:06:23.959Z,7.17
2023-04-16T19:08:57.318Z,7.16
2023-04-16T19:11:30.814Z,7.13
2023-04-16T19:14:05.709Z,7.12
2023-04-16T19:16:41.241Z,7.10
2023-04-16T19:19:13.513Z,7.08
2023-04-16T19:21:46.333Z,7.06
2023-04-16T19:24:20.274Z,7.01
2023-04-16T19:26:53.472Z,6.98
2023-04-16T19:29:28.138Z,6.97
2023-04-16T19:32:01.277Z,6.94
2023-04-16T19:34:34.537Z,6.92
2023-04-16T19:37:07.415Z,6.88
2023-04-16T19:39:40.385Z,6.87
2023-04-16T19:42:13.518Z,6.84
2023-04-16T19:44:46.420Z,6.81
2023-04-16T19:47:20.448Z,6.79
2023-04-16T19:49:53.316Z,6.80
2023-04-16T19:52:26.258Z,6.77
2023-04-16T19:54:58.865Z,6.75
2023-04-16T19:57:31.671Z,6.73
2023-04-16T20:00:06.507Z,6.69
2023-04-16T20:02:39.081Z,6.68
2023-04-16T20:05:12.119Z,6.66
2023-04-16T20:07:44.991Z,6.65
2023-04-16T20:10:17.776Z,6.62
2023-04-16T20:12:51.323Z,6.63
2023-04-16T20:15:24.942Z,6.62
2023-04-16T20:17:58.053Z,6.61
2023-04-16T20:20:30.842Z,6.60
2023-04-16T20:23:03.650Z,6.58
2023-04-16T20:25:36.309Z,6.57
2023-04-16T20:28:09.587Z,6.56
2023-04-16T20:30:42.818Z,6.55
2023-04-16T20:33:15.666Z,6.55
2023-04-16T20:35:50.782Z,6.54
2023-04-16T20:38:24.119Z,6.52
2023-04-16T20:41:01.437Z,6.51
2023-04-16T20:43:36.862Z,6.47
2023-04-16T20:46:11.194Z,6.48
2023-04-16T20:48:44.314Z,6.46
2023-04-16T20:51:17.584Z,6.44
2023-04-16T20:53:52.127Z,6.43
2023-04-16T20:56:25.037Z,6.42
2023-04-16T20:58:59.615Z,6.39
2023-04-16T21:01:31.511Z,6.37
2023-04-16T21:04:05.203Z,6.36
2023-04-16T21:06:38.820Z,6.32
2023-04-16T21:09:12.368Z,6.30
2023-04-16T21:11:45.338Z,6.28
2023-04-16T21:14:18.235Z,6.27
2023-04-16T21:16:51.049Z,6.26
2023-04-16T21:19:23.927Z,6.24
2023-04-16T21:21:56.768Z,6.22
2023-04-16T21:24:30.030Z,6.21
2023-04-16T21:27:03.630Z,6.17
2023-04-16T21:29:36.959Z,6.16
2023-04-16T21:32:09.976Z,6.14
2023-04-16T21:34:43.222Z,6.09
2023-04-16T21:37:16.276Z,6.09
2023-04-16T21:39:49.038Z,6.07
2023-04-16T21:42:21.667Z,6.08
2023-04-16T21:44:54.751Z,6.05
2023-04-16T21:47:27.510Z,6.05
2023-04-16T21:50:00.472Z,6.03
2023-04-16T21:52:33.628Z,6.01
2023-04-16T21:55:08.638Z,6.00
2023-04-16T21:57:41.576Z,5.97
2023-04-16T22:00:15.815Z,5.96
2023-04-16T22:02:47.982Z,5.93
2023-04-16T22:05:21.337Z,5.92
2023-04-16T22:07:54.874Z,5.90
2023-04-16T22:10:27.816Z,5.87
2023-04-16T22:13:01.906Z,5.85
2023-04-16T22:15:35.177Z,5.82
2023-04-16T22:18:09.939Z,5.79
2023-04-16T22:20:42.717Z,5.77
2023-04-16T22:23:16.061Z,5.76
2023-04-16T22:25:48.848Z,5.74
2023-04-16T22:28:21.608Z,5.71
2023-04-16T22:30:54.471Z,5.66
2023-04-16T22:33:31.974Z,5.62
2023-04-16T22:36:05.131Z,5.60
2023-04-16T22:38:38.996Z,5.57
2023-04-16T22:41:11.901Z,5.55
2023-04-16T22:43:44.762Z,5.53
2023-04-16T22:46:19.275Z,5.51
2023-04-16T22:48:52.224Z,5.49
2023-04-16T22:51:27.815Z,5.47
2023-04-16T22:54:00.800Z,5.46
2023-04-16T22:56:34.272Z,5.44
2023-04-16T22:59:10.273Z,5.40
2023-04-16T23:01:43.462Z,5.38
2023-04-16T23:04:17.789Z,5.35
2023-04-16T23:06:51.679Z,5.33
2023-04-16T23:09:24.571Z,5.31
2023-04-16T23:11:58.150Z,5.28
2023-04-16T23:14:31.857Z,5.24
2023-04-16T23:17:05.087Z,5.23
2023-04-16T23:19:38.382Z,5.21
2023-04-16T23:22:11.386Z,5.19
2023-04-16T23:24:44.556Z,5.18
2023-04-16T23:27:17.615Z,5.15
2023-04-16T23:29:50.925Z,5.13
2023-04-16T23:32:23.794Z,5.11
2023-04-16T23:34:56.811Z,5.07
2023-04-16T23:37:30.125Z,5.04
2023-04-16T23:40:02.831Z,5.01
2023-04-16T23:42:36.371Z,4.98
2023-04-16T23:45:11.859Z,4.96
2023-04-16T23:47:45.076Z,4.93
2023-04-16T23:50:17.893Z,4.90
2023-04-16T23:52:50.711Z,4.88
2023-04-16T23:55:23.643Z,4.86
2023-04-16T23:57:56.389Z,4.84
